Time;durP1;ratioP1;P1;durP2;ratioP2;P2;SDS_P1;SDS_P2;PMS_P1;PMS_P2;Temp;Humidity;BMP_temperature;BMP_pressure;BME280_temperature;BME280_humidity;BME280_pressure;Samples;Min_cycle;Max_cycle;Signal;HPM_P1;HPM_P2
2022/01/09 00:01:27;;;;;;;25.38;14.43;;;;;;;;;;5032776;28;20032;-69
2022/01/09 00:03:53;;;;;;;25.42;14.77;;;;;;;;;;5031854;28;20029;-68
2022/01/09 00:06:19;;;;;;;24.92;13.35;;;;;;;;;;5037656;28;20065;-69
2022/01/09 00:08:45;;;;;;;20.45;9.98;;;;;;;;;;5034655;28;20111;-69
2022/01/09 00:11:12;;;;;;;14.70;8.80;;;;;;;;;;5035441;28;20025;-69
2022/01/09 00:13:38;;;;;;;16.33;8.40;;;;;;;;;;5034771;28;20112;-69
2022/01/09 00:16:04;;;;;;;14.98;7.78;;;;;;;;;;5030947;28;20028;-69
2022/01/09 00:18:30;;;;;;;13.88;7.03;;;;;;;;;;5038426;28;20127;-69
2022/01/09 00:20:56;;;;;;;12.07;5.35;;;;;;;;;;5037557;28;20358;-69
2022/01/09 00:23:22;;;;;;;12.00;6.38;;;;;;;;;;5034949;28;20029;-69
2022/01/09 00:25:48;;;;;;;27.38;16.23;;;;;;;;;;5035007;28;20389;-69
2022/01/09 00:28:14;;;;;;;27.95;15.38;;;;;;;;;;5031916;28;20096;-69
2022/01/09 00:30:40;;;;;;;24.38;14.88;;;;;;;;;;5035261;28;20041;-69
2022/01/09 00:33:06;;;;;;;24.85;13.95;;;;;;;;;;5036326;28;20028;-69
2022/01/09 00:35:32;;;;;;;23.17;12.30;;;;;;;;;;5035028;28;20488;-69
2022/01/09 00:37:58;;;;;;;15.38;9.07;;;;;;;;;;5034027;28;20049;-69
2022/01/09 00:40:24;;;;;;;22.92;12.30;;;;;;;;;;5033689;28;20112;-69
2022/01/09 00:42:50;;;;;;;22.23;13.02;;;;;;;;;;5032751;28;20091;-69
2022/01/09 00:45:16;;;;;;;28.00;14.75;;;;;;;;;;5037224;28;20029;-69
2022/01/09 00:47:43;;;;;;;22.60;13.18;;;;;;;;;;5034698;28;20087;-68
2022/01/09 00:50:10;;;;;;;21.35;13.13;;;;;;;;;;5034377;28;20477;-69
2022/01/09 00:52:36;;;;;;;22.30;12.65;;;;;;;;;;5033846;28;20029;-69
2022/01/09 00:55:03;;;;;;;22.60;11.95;;;;;;;;;;5030279;28;20480;-69
2022/01/09 00:57:29;;;;;;;21.73;10.95;;;;;;;;;;5037992;28;20061;-69
2022/01/09 00:59:55;;;;;;;25.92;13.40;;;;;;;;;;5033223;28;20469;-68
2022/01/09 01:02:21;;;;;;;26.70;13.25;;;;;;;;;;5032778;28;20124;-69
2022/01/09 01:04:49;;;;;;;25.70;14.20;;;;;;;;;;5033134;28;20029;-69
2022/01/09 01:07:15;;;;;;;25.95;13.90;;;;;;;;;;5031567;28;20026;-69
2022/01/09 01:09:41;;;;;;;26.23;12.48;;;;;;;;;;5034606;28;20030;-69
2022/01/09 01:12:07;;;;;;;22.05;11.50;;;;;;;;;;5034927;28;20551;-69
2022/01/09 01:14:34;;;;;;;20.75;11.45;;;;;;;;;;5035697;28;20032;-69
2022/01/09 01:17:00;;;;;;;23.17;12.65;;;;;;;;;;5041980;28;20033;-69
2022/01/09 01:19:26;;;;;;;25.67;12.60;;;;;;;;;;5034964;28;20024;-69
2022/01/09 01:21:52;;;;;;;24.40;12.27;;;;;;;;;;5031216;28;20032;-69
2022/01/09 01:24:20;;;;;;;24.52;11.48;;;;;;;;;;5036560;28;20357;-68
2022/01/09 01:26:46;;;;;;;19.42;10.43;;;;;;;;;;5034084;28;20021;-68
2022/01/09 01:29:12;;;;;;;23.33;11.07;;;;;;;;;;5033136;28;20037;-69
2022/01/09 01:31:38;;;;;;;16.63;10.00;;;;;;;;;;5033006;28;20387;-69
2022/01/09 01:34:04;;;;;;;16.45;8.95;;;;;;;;;;5029841;28;20101;-69
2022/01/09 01:36:30;;;;;;;16.83;7.90;;;;;;;;;;5036636;28;20051;-69
2022/01/09 01:38:56;;;;;;;15.32;8.15;;;;;;;;;;5033865;28;20029;-69
2022/01/09 01:41:22;;;;;;;15.95;8.13;;;;;;;;;;5033495;28;20076;-69
2022/01/09 01:43:48;;;;;;;16.73;8.90;;;;;;;;;;5032954;28;20725;-69
2022/01/09 01:46:14;;;;;;;16.85;8.98;;;;;;;;;;5031013;28;20022;-69
2022/01/09 01:48:40;;;;;;;14.73;7.68;;;;;;;;;;5033984;28;20112;-69
2022/01/09 01:51:06;;;;;;;14.45;7.93;;;;;;;;;;5034757;28;20025;-69
2022/01/09 01:53:33;;;;;;;16.17;8.60;;;;;;;;;;5033029;28;20033;-69
2022/01/09 01:56:01;;;;;;;15.73;8.50;;;;;;;;;;5031688;28;20029;-69
2022/01/09 01:58:27;;;;;;;15.63;8.30;;;;;;;;;;5032485;28;20052;-69
2022/01/09 02:00:53;;;;;;;13.48;7.72;;;;;;;;;;5029841;28;20029;-69
2022/01/09 02:03:20;;;;;;;14.13;7.97;;;;;;;;;;5035826;28;20491;-69
2022/01/09 02:05:46;;;;;;;16.55;8.20;;;;;;;;;;5033152;28;20413;-69
2022/01/09 02:08:12;;;;;;;15.18;8.02;;;;;;;;;;5032773;28;20037;-69
2022/01/09 02:10:40;;;;;;;13.35;7.35;;;;;;;;;;5032618;28;20032;-69
2022/01/09 02:13:06;;;;;;;14.98;7.45;;;;;;;;;;5029365;28;20085;-69
2022/01/09 02:15:32;;;;;;;13.77;6.28;;;;;;;;;;5035752;28;20100;-69
2022/01/09 02:17:59;;;;;;;11.63;6.63;;;;;;;;;;5039254;28;20028;-69
2022/01/09 02:20:25;;;;;;;15.80;7.20;;;;;;;;;;5039149;28;20504;-69
2022/01/09 02:22:51;;;;;;;17.02;8.20;;;;;;;;;;5031686;28;20029;-68
2022/01/09 02:25:17;;;;;;;13.38;7.47;;;;;;;;;;5030063;28;20022;-69
2022/01/09 02:27:43;;;;;;;10.70;5.70;;;;;;;;;;5033017;28;20041;-69
2022/01/09 02:30:10;;;;;;;15.45;8.05;;;;;;;;;;5032432;28;20385;-68
2022/01/09 02:32:36;;;;;;;15.23;7.32;;;;;;;;;;5033051;28;20036;-68
2022/01/09 02:35:02;;;;;;;14.02;7.50;;;;;;;;;;5032717;28;20026;-68
2022/01/09 02:37:27;;;;;;;12.18;7.03;;;;;;;;;;5031175;28;20506;-68
2022/01/09 02:39:53;;;;;;;12.82;7.55;;;;;;;;;;5030464;28;20030;-69
2022/01/09 02:42:29;;;;;;;13.80;7.75;;;;;;;;;;5034931;28;20381;-69
2022/01/09 02:44:55;;;;;;;13.75;7.65;;;;;;;;;;5032333;28;20140;-68
2022/01/09 02:47:22;;;;;;;14.55;7.80;;;;;;;;;;5032161;28;20510;-69
2022/01/09 02:49:51;;;;;;;15.48;8.13;;;;;;;;;;5032442;28;20027;-68
2022/01/09 02:52:35;;;;;;;13.27;7.57;;;;;;;;;;5030140;28;20101;-68
2022/01/09 02:57:32;;;;;;;14.95;7.38;;;;;;;;;;5043915;28;20043;-68
2022/01/09 02:59:58;;;;;;;11.70;6.63;;;;;;;;;;5034081;28;20388;-68
2022/01/09 03:02:24;;;;;;;12.15;7.10;;;;;;;;;;5032582;28;20349;-68
2022/01/09 03:04:50;;;;;;;15.85;7.38;;;;;;;;;;5031942;28;20096;-69
2022/01/09 03:07:16;;;;;;;14.00;7.25;;;;;;;;;;5030006;28;20030;-68
2022/01/09 03:09:42;;;;;;;14.52;7.22;;;;;;;;;;5032819;28;20041;-69
2022/01/09 03:12:10;;;;;;;12.90;6.50;;;;;;;;;;5033408;28;20096;-68
2022/01/09 03:14:36;;;;;;;15.10;6.88;;;;;;;;;;5032295;28;20049;-68
2022/01/09 03:17:03;;;;;;;13.10;7.20;;;;;;;;;;5039402;28;20087;-68
2022/01/09 03:19:29;;;;;;;12.75;7.00;;;;;;;;;;5033684;28;20036;-68
2022/01/09 03:21:55;;;;;;;13.07;6.72;;;;;;;;;;5029317;28;20041;-68
2022/01/09 03:24:21;;;;;;;11.27;6.47;;;;;;;;;;5035100;28;20533;-68
2022/01/09 03:26:47;;;;;;;12.23;6.88;;;;;;;;;;5032003;28;20037;-68
2022/01/09 03:29:13;;;;;;;13.68;6.68;;;;;;;;;;5032186;28;20037;-69
2022/01/09 03:31:39;;;;;;;14.55;7.13;;;;;;;;;;5030867;28;20033;-69
2022/01/09 03:34:05;;;;;;;12.10;6.40;;;;;;;;;;5028177;28;20029;-68
2022/01/09 03:36:31;;;;;;;10.70;5.97;;;;;;;;;;5036167;28;20053;-68
2022/01/09 03:38:57;;;;;;;11.65;6.13;;;;;;;;;;5035972;28;20034;-69
2022/01/09 03:41:23;;;;;;;11.68;6.22;;;;;;;;;;5035631;28;20036;-68
2022/01/09 03:43:49;;;;;;;10.63;6.57;;;;;;;;;;5035886;28;20453;-68
2022/01/09 03:46:14;;;;;;;12.82;6.55;;;;;;;;;;5031363;28;20065;-69
2022/01/09 03:48:40;;;;;;;11.68;6.53;;;;;;;;;;5035843;28;20481;-68
2022/01/09 03:51:06;;;;;;;10.88;6.40;;;;;;;;;;5037087;28;20419;-69
2022/01/09 03:53:32;;;;;;;13.10;6.57;;;;;;;;;;5035705;28;20029;-69
2022/01/09 03:55:59;;;;;;;12.05;5.53;;;;;;;;;;5035595;28;20076;-69
2022/01/09 03:58:25;;;;;;;6.65;4.05;;;;;;;;;;5034307;28;20079;-69
2022/01/09 04:00:51;;;;;;;9.93;5.35;;;;;;;;;;5033341;28;20385;-69
2022/01/09 04:03:17;;;;;;;13.18;6.82;;;;;;;;;;5037788;28;20026;-69
2022/01/09 04:05:43;;;;;;;11.30;6.57;;;;;;;;;;5035590;28;20425;-69
2022/01/09 04:08:09;;;;;;;12.57;6.80;;;;;;;;;;5034793;28;20041;-69
2022/01/09 04:10:40;;;;;;;11.10;6.20;;;;;;;;;;5034875;28;20104;-69
2022/01/09 04:13:07;;;;;;;11.90;6.28;;;;;;;;;;5031675;28;20029;-69
2022/01/09 04:15:33;;;;;;;11.52;6.45;;;;;;;;;;5037609;28;20120;-69
2022/01/09 04:18:00;;;;;;;9.63;5.25;;;;;;;;;;5035701;28;20033;-69
2022/01/09 04:20:29;;;;;;;10.60;5.07;;;;;;;;;;5037151;28;20025;-69
2022/01/09 04:22:56;;;;;;;11.93;6.53;;;;;;;;;;5034846;28;20021;-69
2022/01/09 04:25:22;;;;;;;10.13;5.40;;;;;;;;;;5033133;28;20039;-69
2022/01/09 04:27:50;;;;;;;10.68;6.05;;;;;;;;;;5034012;28;20032;-69
2022/01/09 04:30:17;;;;;;;12.38;7.07;;;;;;;;;;5036687;28;20026;-69
2022/01/09 04:32:43;;;;;;;11.35;6.15;;;;;;;;;;5034881;28;20025;-69
2022/01/09 04:35:09;;;;;;;9.23;5.38;;;;;;;;;;5034660;28;20402;-69
2022/01/09 04:37:36;;;;;;;11.57;5.43;;;;;;;;;;5034829;28;20500;-69
2022/01/09 04:40:03;;;;;;;13.52;6.70;;;;;;;;;;5030188;28;20057;-69
2022/01/09 04:42:38;;;;;;;10.98;5.80;;;;;;;;;;5045784;28;20029;-69
2022/01/09 04:45:04;;;;;;;15.40;7.28;;;;;;;;;;5036726;28;20037;-69
2022/01/09 04:47:31;;;;;;;13.40;7.00;;;;;;;;;;5034008;28;20038;-69
2022/01/09 04:49:59;;;;;;;14.05;7.30;;;;;;;;;;5034633;28;20033;-68
2022/01/09 04:52:29;;;;;;;11.20;5.88;;;;;;;;;;5033165;28;20582;-69
2022/01/09 04:54:55;;;;;;;12.50;5.55;;;;;;;;;;5030544;28;20038;-68
2022/01/09 04:57:21;;;;;;;12.02;6.93;;;;;;;;;;5036990;28;20113;-69
2022/01/09 04:59:47;;;;;;;14.25;6.25;;;;;;;;;;5034242;28;20033;-70
2022/01/09 05:02:13;;;;;;;11.43;6.10;;;;;;;;;;5034360;28;20630;-69
2022/01/09 05:04:39;;;;;;;9.48;5.38;;;;;;;;;;5034427;28;20032;-69
2022/01/09 05:07:05;;;;;;;17.25;9.73;;;;;;;;;;5044219;28;20078;-69
2022/01/09 05:09:31;;;;;;;14.57;6.28;;;;;;;;;;5037372;28;20389;-69
2022/01/09 05:11:58;;;;;;;13.32;7.38;;;;;;;;;;5034273;28;20035;-69
2022/01/09 05:14:24;;;;;;;16.20;7.30;;;;;;;;;;5033856;28;20060;-69
2022/01/09 05:16:50;;;;;;;12.50;7.28;;;;;;;;;;5033599;28;20484;-69
2022/01/09 05:19:19;;;;;;;10.50;6.03;;;;;;;;;;5033956;28;20452;-69
2022/01/09 05:21:46;;;;;;;11.48;5.65;;;;;;;;;;5034051;28;20060;-69
2022/01/09 05:24:12;;;;;;;5.32;2.40;;;;;;;;;;5034939;28;20030;-69
2022/01/09 05:26:38;;;;;;;8.88;4.95;;;;;;;;;;5033903;28;20105;-69
2022/01/09 05:29:04;;;;;;;11.07;6.00;;;;;;;;;;5032104;28;20124;-69
2022/01/09 05:31:30;;;;;;;10.95;5.80;;;;;;;;;;5033434;28;20537;-69
2022/01/09 05:33:56;;;;;;;8.60;4.30;;;;;;;;;;5030680;28;20080;-69
2022/01/09 05:36:22;;;;;;;7.38;3.80;;;;;;;;;;5051608;28;20069;-69
2022/01/09 05:38:47;;;;;;;4.53;2.08;;;;;;;;;;5033674;28;20029;-69
2022/01/09 05:41:13;;;;;;;10.75;4.63;;;;;;;;;;5033336;28;20029;-69
2022/01/09 05:43:40;;;;;;;8.77;4.63;;;;;;;;;;5033485;28;20025;-68
2022/01/09 05:46:06;;;;;;;10.02;5.30;;;;;;;;;;5033962;28;20392;-67
2022/01/09 05:48:32;;;;;;;9.30;5.25;;;;;;;;;;5035870;28;20046;-66
2022/01/09 05:50:58;;;;;;;8.43;4.47;;;;;;;;;;5033655;28;20369;-65
2022/01/09 05:53:25;;;;;;;7.90;3.72;;;;;;;;;;5033105;28;20065;-65
2022/01/09 05:55:50;;;;;;;3.95;1.85;;;;;;;;;;5033420;28;20392;-65
2022/01/09 05:58:17;;;;;;;8.25;4.18;;;;;;;;;;5030090;28;20109;-65
2022/01/09 06:00:43;;;;;;;2.17;1.58;;;;;;;;;;5033368;28;20017;-64
2022/01/09 06:03:09;;;;;;;1.50;0.70;;;;;;;;;;5034642;28;20032;-65
2022/01/09 06:05:35;;;;;;;1.00;0.43;;;;;;;;;;5032418;28;20052;-66
2022/01/09 06:08:01;;;;;;;2.03;0.70;;;;;;;;;;5031903;28;20087;-66
2022/01/09 06:10:27;;;;;;;0.70;0.50;;;;;;;;;;5032142;28;20033;-65
2022/01/09 06:12:53;;;;;;;2.38;0.50;;;;;;;;;;5030387;28;20048;-65
2022/01/09 06:15:19;;;;;;;0.28;0.10;;;;;;;;;;5035058;28;20040;-64
2022/01/09 06:17:46;;;;;;;2.90;0.60;;;;;;;;;;5030463;28;20401;-66
2022/01/09 06:20:13;;;;;;;0.50;0.20;;;;;;;;;;5035264;28;20388;-67
2022/01/09 06:22:40;;;;;;;2.38;0.70;;;;;;;;;;5041396;28;20029;-68
2022/01/09 06:25:07;;;;;;;0.43;0.30;;;;;;;;;;5028876;28;20022;-67
2022/01/09 06:27:33;;;;;;;0.80;0.40;;;;;;;;;;5030634;28;20382;-67
2022/01/09 06:29:59;;;;;;;0.40;0.40;;;;;;;;;;5029585;28;20036;-67
2022/01/09 06:32:25;;;;;;;0.55;0.25;;;;;;;;;;5032722;28;20033;-67
2022/01/09 06:34:51;;;;;;;0.98;0.20;;;;;;;;;;5039947;28;20029;-67
2022/01/09 06:37:17;;;;;;;0.77;0.40;;;;;;;;;;5025308;28;20046;-67
2022/01/09 06:39:44;;;;;;;0.47;0.30;;;;;;;;;;5029493;28;20164;-68
2022/01/09 06:42:11;;;;;;;0.03;0.03;;;;;;;;;;5033304;28;20053;-67
2022/01/09 06:44:37;;;;;;;0.50;0.30;;;;;;;;;;5033644;28;20052;-66
2022/01/09 06:47:04;;;;;;;0.77;0.28;;;;;;;;;;5031011;28;20460;-66
2022/01/09 06:49:30;;;;;;;0.20;0.20;;;;;;;;;;5029652;28;20111;-67
2022/01/09 06:51:56;;;;;;;0.10;0.10;;;;;;;;;;5028224;28;20022;-67
2022/01/09 06:54:22;;;;;;;0.10;0.10;;;;;;;;;;5048582;28;20083;-67
2022/01/09 06:56:48;;;;;;;0.17;0.17;;;;;;;;;;5032978;28;20025;-67
2022/01/09 06:59:14;;;;;;;0.88;0.38;;;;;;;;;;5029932;28;20048;-66
2022/01/09 07:01:40;;;;;;;0.10;0.10;;;;;;;;;;5032465;28;20469;-66
2022/01/09 07:04:06;;;;;;;0.30;0.20;;;;;;;;;;5039771;28;20045;-69
2022/01/09 07:06:32;;;;;;;0.30;0.22;;;;;;;;;;5035217;28;20048;-68
2022/01/09 07:08:58;;;;;;;0.22;0.20;;;;;;;;;;5032896;28;20398;-68
2022/01/09 07:11:24;;;;;;;0.20;0.20;;;;;;;;;;5035280;28;20026;-68
2022/01/09 07:13:50;;;;;;;1.00;0.25;;;;;;;;;;5039459;28;20079;-68
2022/01/09 07:16:16;;;;;;;0.80;0.45;;;;;;;;;;5033709;28;20517;-69
2022/01/09 07:18:42;;;;;;;0.30;0.10;;;;;;;;;;5036093;28;20033;-69
2022/01/09 07:21:08;;;;;;;0.32;0.20;;;;;;;;;;5038181;28;20070;-69
2022/01/09 07:23:34;;;;;;;0.30;0.20;;;;;;;;;;5035182;28;20635;-68
2022/01/09 07:26:00;;;;;;;0.88;0.40;;;;;;;;;;5034980;28;20021;-69
2022/01/09 07:28:26;;;;;;;0.82;0.50;;;;;;;;;;5033040;28;20041;-69
2022/01/09 07:30:52;;;;;;;0.52;0.45;;;;;;;;;;5033917;28;20044;-69
2022/01/09 07:33:18;;;;;;;0.65;0.50;;;;;;;;;;5036661;28;20376;-69
2022/01/09 07:35:44;;;;;;;0.80;0.50;;;;;;;;;;5034658;28;20033;-71
2022/01/09 07:38:10;;;;;;;1.55;0.80;;;;;;;;;;5035037;28;20034;-69
2022/01/09 07:40:36;;;;;;;1.58;0.80;;;;;;;;;;5032742;28;20030;-69
2022/01/09 07:43:02;;;;;;;1.23;0.63;;;;;;;;;;5034950;28;20104;-69
2022/01/09 07:45:29;;;;;;;0.93;0.60;;;;;;;;;;5039443;28;20017;-69
2022/01/09 07:47:56;;;;;;;1.80;0.63;;;;;;;;;;5034294;28;20484;-70
2022/01/09 07:50:22;;;;;;;1.00;0.60;;;;;;;;;;5035318;28;20180;-70
2022/01/09 07:52:49;;;;;;;2.20;0.70;;;;;;;;;;5035761;28;20029;-70
2022/01/09 07:55:15;;;;;;;1.38;0.60;;;;;;;;;;5046854;28;20483;-71
2022/01/09 07:57:41;;;;;;;0.88;0.57;;;;;;;;;;5036172;28;20029;-69
2022/01/09 08:00:09;;;;;;;1.08;0.70;;;;;;;;;;5035818;28;20036;-69
2022/01/09 08:02:35;;;;;;;2.90;1.25;;;;;;;;;;5038084;28;20032;-70
2022/01/09 08:05:01;;;;;;;2.67;1.25;;;;;;;;;;5034197;28;20034;-68
2022/01/09 08:07:27;;;;;;;3.22;1.73;;;;;;;;;;5016956;28;20102;-67
2022/01/09 08:09:53;;;;;;;2.55;1.50;;;;;;;;;;5026281;28;20548;-65
2022/01/09 08:12:19;;;;;;;3.30;1.65;;;;;;;;;;5020423;28;20036;-68
2022/01/09 08:14:45;;;;;;;3.33;1.25;;;;;;;;;;5020296;28;20041;-69
2022/01/09 08:17:11;;;;;;;1.50;0.93;;;;;;;;;;5017985;28;20029;-69
2022/01/09 08:19:38;;;;;;;2.30;1.02;;;;;;;;;;5016043;28;20466;-69
2022/01/09 08:22:04;;;;;;;1.38;1.02;;;;;;;;;;5028129;28;20045;-69
2022/01/09 08:24:30;;;;;;;2.45;1.15;;;;;;;;;;5034824;28;20044;-70
2022/01/09 08:26:56;;;;;;;2.67;1.50;;;;;;;;;;5017276;28;20030;-68
2022/01/09 08:29:22;;;;;;;4.05;2.13;;;;;;;;;;5017627;28;20108;-68
2022/01/09 08:31:49;;;;;;;5.63;2.00;;;;;;;;;;5016837;28;20108;-65
2022/01/09 08:34:15;;;;;;;2.60;1.60;;;;;;;;;;5037268;28;20021;-62
2022/01/09 08:36:41;;;;;;;5.70;2.70;;;;;;;;;;5014077;28;20050;-73
2022/01/09 08:39:07;;;;;;;3.35;1.90;;;;;;;;;;5025724;28;20041;-65
2022/01/09 08:41:33;;;;;;;3.92;2.05;;;;;;;;;;5020489;28;20018;-65
2022/01/09 08:44:04;;;;;;;6.10;2.33;;;;;;;;;;5023219;28;20481;-64
2022/01/09 08:46:31;;;;;;;3.55;1.73;;;;;;;;;;5015515;28;20017;-65
2022/01/09 08:48:57;;;;;;;5.78;2.35;;;;;;;;;;5012454;28;20037;-63
2022/01/09 08:51:23;;;;;;;4.70;2.40;;;;;;;;;;5015241;28;20036;-63
2022/01/09 08:53:50;;;;;;;5.25;2.83;;;;;;;;;;5031216;28;20439;-64
2022/01/09 08:56:20;;;;;;;4.23;2.00;;;;;;;;;;5022103;28;20026;-64
2022/01/09 08:58:47;;;;;;;4.55;1.83;;;;;;;;;;5016601;28;20021;-64
2022/01/09 09:01:12;;;;;;;3.65;1.60;;;;;;;;;;5013092;28;20044;-64
2022/01/09 09:03:41;;;;;;;2.78;1.38;;;;;;;;;;5035123;28;20029;-65
2022/01/09 09:06:08;;;;;;;3.97;2.08;;;;;;;;;;5024498;28;20433;-61
2022/01/09 09:08:34;;;;;;;6.10;2.72;;;;;;;;;;5020003;28;20117;-59
2022/01/09 09:11:00;;;;;;;7.35;3.50;;;;;;;;;;5016677;28;20109;-59
2022/01/09 09:13:26;;;;;;;7.97;3.25;;;;;;;;;;5022434;28;20092;-62
2022/01/09 09:15:52;;;;;;;5.20;2.92;;;;;;;;;;5013586;28;20069;-63
2022/01/09 09:18:18;;;;;;;7.55;3.50;;;;;;;;;;5014559;28;20037;-60
2022/01/09 09:20:44;;;;;;;6.35;2.50;;;;;;;;;;5016712;28;20030;-65
2022/01/09 09:23:10;;;;;;;7.47;3.35;;;;;;;;;;5024886;28;20436;-63
2022/01/09 09:25:37;;;;;;;9.52;4.18;;;;;;;;;;5026633;28;20029;-63
2022/01/09 09:28:03;;;;;;;8.55;3.63;;;;;;;;;;5026913;28;20072;-63
2022/01/09 09:30:29;;;;;;;9.15;3.88;;;;;;;;;;5026932;28;20039;-63
2022/01/09 09:32:55;;;;;;;8.95;4.78;;;;;;;;;;5028522;28;20108;-64
2022/01/09 09:35:21;;;;;;;11.45;5.30;;;;;;;;;;5025776;28;20026;-67
2022/01/09 09:37:47;;;;;;;6.80;3.65;;;;;;;;;;5014253;28;20470;-67
2022/01/09 09:40:13;;;;;;;7.72;3.63;;;;;;;;;;5025690;28;20033;-63
2022/01/09 09:42:40;;;;;;;7.47;4.10;;;;;;;;;;5019112;28;20498;-63
2022/01/09 09:45:06;;;;;;;6.32;2.55;;;;;;;;;;5024390;28;20430;-63
2022/01/09 09:47:33;;;;;;;2.97;1.60;;;;;;;;;;5018944;28;20375;-63
2022/01/09 09:49:59;;;;;;;3.25;1.65;;;;;;;;;;5014032;28;20034;-62
2022/01/09 09:52:25;;;;;;;3.70;1.80;;;;;;;;;;5015360;28;20029;-63
2022/01/09 09:54:52;;;;;;;2.70;1.50;;;;;;;;;;5029676;28;20108;-62
2022/01/09 09:57:18;;;;;;;3.42;1.50;;;;;;;;;;5020683;28;20037;-62
2022/01/09 09:59:44;;;;;;;3.45;1.60;;;;;;;;;;5021157;28;20474;-63
2022/01/09 10:02:17;;;;;;;2.67;1.40;;;;;;;;;;5021257;28;20032;-62
2022/01/09 10:05:00;;;;;;;2.60;1.25;;;;;;;;;;5034384;28;20103;-67
2022/01/09 10:07:26;;;;;;;2.75;1.27;;;;;;;;;;5022475;28;20039;-65
2022/01/09 10:09:55;;;;;;;2.28;1.25;;;;;;;;;;5010386;28;20048;-66
2022/01/09 10:12:25;;;;;;;3.42;1.40;;;;;;;;;;5014994;28;20373;-65
2022/01/09 10:14:53;;;;;;;3.30;1.40;;;;;;;;;;5013538;28;20485;-64
2022/01/09 10:17:20;;;;;;;3.50;0.90;;;;;;;;;;5013331;28;20100;-64
2022/01/09 10:19:49;;;;;;;2.78;1.10;;;;;;;;;;5023704;28;20103;-64
2022/01/09 10:22:22;;;;;;;4.15;1.50;;;;;;;;;;5011644;28;20026;-65
2022/01/09 10:24:48;;;;;;;2.22;1.10;;;;;;;;;;5028697;28;20033;-64
2022/01/09 10:27:27;;;;;;;1.42;1.10;;;;;;;;;;5023226;28;20029;-63
2022/01/09 10:29:54;;;;;;;1.73;0.73;;;;;;;;;;5014708;28;20409;-63
2022/01/09 10:32:20;;;;;;;0.43;0.22;;;;;;;;;;5015332;28;20465;-61
2022/01/09 10:35:06;;;;;;;0.85;0.25;;;;;;;;;;5033231;28;20108;-63
2022/01/09 10:37:32;;;;;;;2.45;0.82;;;;;;;;;;5010484;28;20050;-65
2022/01/09 10:40:00;;;;;;;3.42;0.88;;;;;;;;;;5024149;28;20034;-63
2022/01/09 10:42:26;;;;;;;2.60;0.60;;;;;;;;;;5017314;28;20029;-63
2022/01/09 10:44:53;;;;;;;1.83;0.80;;;;;;;;;;5014368;28;20064;-62
2022/01/09 10:47:19;;;;;;;1.33;0.68;;;;;;;;;;5011450;28;20096;-65
2022/01/09 10:49:52;;;;;;;2.30;0.70;;;;;;;;;;5026692;28;20029;-64
2022/01/09 10:52:20;;;;;;;0.82;0.60;;;;;;;;;;5012363;28;20450;-65
2022/01/09 10:54:47;;;;;;;1.35;0.80;;;;;;;;;;5028586;28;20029;-62
2022/01/09 10:57:20;;;;;;;1.50;0.68;;;;;;;;;;5016170;28;20018;-62
2022/01/09 10:59:46;;;;;;;1.33;0.63;;;;;;;;;;5016517;28;20542;-63
2022/01/09 11:02:12;;;;;;;2.33;0.70;;;;;;;;;;5017484;28;20026;-66
2022/01/09 11:04:48;;;;;;;0.60;0.32;;;;;;;;;;5037439;28;20045;-66
2022/01/09 11:07:15;;;;;;;1.30;0.63;;;;;;;;;;5039435;28;20092;-64
2022/01/09 11:09:45;;;;;;;1.17;0.75;;;;;;;;;;5026789;28;20456;-64
2022/01/09 11:12:16;;;;;;;1.85;0.60;;;;;;;;;;5015945;28;20026;-64
2022/01/09 11:14:43;;;;;;;2.00;0.88;;;;;;;;;;5016611;28;20029;-63
2022/01/09 11:17:09;;;;;;;1.58;0.80;;;;;;;;;;5031086;28;20089;-64
2022/01/09 11:19:36;;;;;;;2.05;0.90;;;;;;;;;;5023137;28;20547;-64
2022/01/09 11:22:05;;;;;;;1.98;0.73;;;;;;;;;;5043490;28;20385;-66
2022/01/09 11:24:49;;;;;;;1.17;0.63;;;;;;;;;;5043114;28;20098;-64
2022/01/09 11:27:15;;;;;;;1.13;0.70;;;;;;;;;;5033430;28;20033;-64
2022/01/09 11:29:41;;;;;;;1.67;0.80;;;;;;;;;;5031885;28;20033;-64
2022/01/09 11:32:20;;;;;;;1.02;0.50;;;;;;;;;;5028273;28;20152;-64
2022/01/09 11:35:03;;;;;;;0.50;0.47;;;;;;;;;;5029261;28;20025;-64
2022/01/09 11:37:29;;;;;;;2.08;0.60;;;;;;;;;;5036122;28;20045;-64
2022/01/09 11:39:55;;;;;;;1.23;0.70;;;;;;;;;;5029300;28;20026;-64
2022/01/09 11:42:21;;;;;;;1.45;0.68;;;;;;;;;;5034766;28;20037;-65
2022/01/09 11:44:51;;;;;;;1.27;0.50;;;;;;;;;;5031365;28;20465;-64
2022/01/09 11:47:18;;;;;;;0.57;0.40;;;;;;;;;;5032115;28;20029;-64
2022/01/09 11:49:52;;;;;;;0.60;0.40;;;;;;;;;;5032018;28;20032;-64
2022/01/09 11:52:18;;;;;;;0.77;0.47;;;;;;;;;;5029359;28;20032;-64
2022/01/09 11:55:00;;;;;;;1.73;0.80;;;;;;;;;;5031703;28;20029;-64
2022/01/09 11:57:36;;;;;;;2.15;0.60;;;;;;;;;;5036585;28;20096;-65
2022/01/09 12:00:05;;;;;;;1.50;0.55;;;;;;;;;;5035757;28;20030;-64
2022/01/09 12:02:32;;;;;;;2.40;1.27;;;;;;;;;;5035199;28;20036;-64
2022/01/09 12:05:02;;;;;;;1.30;0.80;;;;;;;;;;5039004;28;20032;-64
2022/01/09 12:07:34;;;;;;;1.00;0.40;;;;;;;;;;5034092;28;20037;-65
2022/01/09 12:10:20;;;;;;;0.77;0.50;;;;;;;;;;5014999;28;20029;-65
2022/01/09 12:12:46;;;;;;;0.20;0.20;;;;;;;;;;5047724;28;20032;-65
2022/01/09 12:15:14;;;;;;;1.40;0.40;;;;;;;;;;5035953;28;20079;-65
2022/01/09 12:17:45;;;;;;;0.30;0.30;;;;;;;;;;5035041;28;20543;-65
2022/01/09 12:20:14;;;;;;;0.65;0.40;;;;;;;;;;5037098;28;20117;-65
2022/01/09 12:25:10;;;;;;;0.73;0.35;;;;;;;;;;5031535;28;20121;-64
2022/01/09 12:27:36;;;;;;;1.88;0.55;;;;;;;;;;5036967;28;20033;-65
2022/01/09 12:30:08;;;;;;;1.35;0.50;;;;;;;;;;5047057;28;20102;-65
2022/01/09 12:32:41;;;;;;;1.48;0.55;;;;;;;;;;5037790;28;20057;-65
2022/01/09 12:35:21;;;;;;;1.13;0.70;;;;;;;;;;5034866;28;20392;-65
2022/01/09 12:37:48;;;;;;;1.77;0.60;;;;;;;;;;5037317;28;20052;-64
2022/01/09 12:40:18;;;;;;;1.83;1.00;;;;;;;;;;5032242;28;20022;-65
2022/01/09 12:42:50;;;;;;;3.38;1.77;;;;;;;;;;5033715;28;20033;-65
2022/01/09 12:45:19;;;;;;;2.10;0.90;;;;;;;;;;5036551;28;20453;-65
2022/01/09 12:47:45;;;;;;;0.98;0.73;;;;;;;;;;5034399;28;20121;-65
2022/01/09 12:50:11;;;;;;;0.90;0.60;;;;;;;;;;5034598;28;20576;-65
2022/01/09 12:52:37;;;;;;;3.15;1.48;;;;;;;;;;5034271;28;20029;-65
2022/01/09 12:55:04;;;;;;;3.03;1.08;;;;;;;;;;5029986;28;20018;-65
2022/01/09 12:57:30;;;;;;;1.10;0.50;;;;;;;;;;5045191;28;20056;-65
2022/01/09 12:59:57;;;;;;;0.73;0.43;;;;;;;;;;5034510;28;20037;-65
2022/01/09 13:02:23;;;;;;;0.80;0.40;;;;;;;;;;5034097;28;20029;-65
2022/01/09 13:04:48;;;;;;;0.98;0.50;;;;;;;;;;5034319;28;20036;-66
2022/01/09 13:07:16;;;;;;;1.23;0.30;;;;;;;;;;5031258;28;20033;-66
2022/01/09 13:09:42;;;;;;;3.47;1.00;;;;;;;;;;5034555;28;20045;-64
2022/01/09 13:12:08;;;;;;;111.25;54.65;;;;;;;;;;5035326;28;20421;-65
2022/01/09 13:14:36;;;;;;;24.38;11.90;;;;;;;;;;5033529;28;20041;-65
2022/01/09 13:17:03;;;;;;;13.70;6.68;;;;;;;;;;5034149;28;20370;-65
2022/01/09 13:19:29;;;;;;;12.18;5.00;;;;;;;;;;5035624;28;20107;-65
2022/01/09 13:21:55;;;;;;;8.32;4.00;;;;;;;;;;5031086;28;20156;-65
2022/01/09 13:24:23;;;;;;;6.85;3.45;;;;;;;;;;5036727;28;20026;-65
2022/01/09 13:26:50;;;;;;;7.90;3.17;;;;;;;;;;5033069;28;20040;-65
2022/01/09 13:29:16;;;;;;;7.15;3.25;;;;;;;;;;5033781;28;20460;-66
2022/01/09 13:31:43;;;;;;;7.20;3.22;;;;;;;;;;5033859;28;20021;-65
2022/01/09 13:34:11;;;;;;;2.37;1.03;;;;;;;;;;5030211;28;20029;-65
2022/01/09 13:36:47;;;;;;;4.10;1.80;;;;;;;;;;5034754;28;20052;-65
2022/01/09 13:39:22;;;;;;;3.85;1.92;;;;;;;;;;5034638;28;20037;-65
2022/01/09 13:41:47;;;;;;;5.32;2.67;;;;;;;;;;5033530;28;20022;-65
2022/01/09 13:44:13;;;;;;;5.60;1.95;;;;;;;;;;5033719;28;20397;-64
2022/01/09 13:46:41;;;;;;;4.55;1.90;;;;;;;;;;5033204;28;20461;-65
2022/01/09 13:49:11;;;;;;;9.30;5.10;;;;;;;;;;5029682;28;20030;-65
2022/01/09 13:51:42;;;;;;;4.70;2.00;;;;;;;;;;5034568;28;20079;-65
2022/01/09 13:54:09;;;;;;;4.32;1.98;;;;;;;;;;5036197;28;20017;-65
2022/01/09 13:56:35;;;;;;;6.30;3.08;;;;;;;;;;5032949;28;20023;-65
2022/01/09 13:59:01;;;;;;;6.22;2.35;;;;;;;;;;5033203;28;20421;-66
2022/01/09 14:01:46;;;;;;;5.20;2.00;;;;;;;;;;5029695;28;20017;-66
2022/01/09 14:04:17;;;;;;;6.68;3.00;;;;;;;;;;5015065;28;20061;-66
2022/01/09 14:06:43;;;;;;;7.75;3.28;;;;;;;;;;5042182;28;20029;-66
2022/01/09 14:09:09;;;;;;;8.43;4.07;;;;;;;;;;5033719;28;20441;-66
2022/01/09 14:11:35;;;;;;;6.47;3.17;;;;;;;;;;5039438;28;20419;-66
2022/01/09 14:14:01;;;;;;;6.53;2.60;;;;;;;;;;5040572;28;20079;-66
2022/01/09 14:16:35;;;;;;;6.13;2.60;;;;;;;;;;5033436;28;20017;-64
2022/01/09 14:19:05;;;;;;;6.30;2.45;;;;;;;;;;5013877;28;20035;-65
2022/01/09 14:21:31;;;;;;;8.05;2.60;;;;;;;;;;5046273;28;20060;-66
2022/01/09 14:24:05;;;;;;;5.60;2.00;;;;;;;;;;5033140;28;20385;-64
2022/01/09 14:26:30;;;;;;;2.97;1.60;;;;;;;;;;5034169;28;20108;-64
2022/01/09 14:28:56;;;;;;;11.85;7.32;;;;;;;;;;5032685;28;20112;-64
2022/01/09 14:31:22;;;;;;;4.90;2.60;;;;;;;;;;5030533;28;20029;-65
2022/01/09 14:33:54;;;;;;;5.00;2.05;;;;;;;;;;5032401;28;20108;-64
2022/01/09 14:36:21;;;;;;;8.63;3.58;;;;;;;;;;5034124;28;20072;-64
2022/01/09 14:38:55;;;;;;;5.07;2.80;;;;;;;;;;5037412;28;20029;-63
2022/01/09 14:41:26;;;;;;;7.10;3.53;;;;;;;;;;5037796;28;20128;-64